createdAt,value
2023-03-12T00:01:20.324Z,2.83
2023-03-12T00:03:50.536Z,2.80
2023-03-12T00:06:19.014Z,3.07
2023-03-12T00:08:47.355Z,3.30
2023-03-12T00:11:18.179Z,2.33
2023-03-12T00:13:46.596Z,2.40
2023-03-12T00:16:15.521Z,2.47
2023-03-12T00:18:44.444Z,2.67
2023-03-12T00:21:14.462Z,2.77
2023-03-12T00:23:42.753Z,2.57
2023-03-12T00:26:11.892Z,2.57
2023-03-12T00:28:40.779Z,2.33
2023-03-12T00:31:15.389Z,2.73
2023-03-12T00:33:43.639Z,2.30
2023-03-12T00:36:12.925Z,2.53
2023-03-12T00:38:42.520Z,2.63
2023-03-12T00:41:10.735Z,2.17
2023-03-12T00:43:38.953Z,2.40
2023-03-12T00:46:07.466Z,2.93
2023-03-12T00:48:35.787Z,2.20
2023-03-12T00:51:04.050Z,1.80
2023-03-12T00:53:32.290Z,2.50
2023-03-12T00:56:01.855Z,2.13
2023-03-12T00:58:30.158Z,2.10
2023-03-12T01:00:58.473Z,2.37
2023-03-12T01:03:26.880Z,2.47
2023-03-12T01:05:55.649Z,2.10
2023-03-12T01:08:24.591Z,2.10
2023-03-12T01:10:52.942Z,3.07
2023-03-12T01:13:22.489Z,3.40
2023-03-12T01:15:50.762Z,2.03
2023-03-12T01:18:19.434Z,2.03
2023-03-12T01:20:48.053Z,2.73
2023-03-12T01:23:16.551Z,2.57
2023-03-12T01:25:44.815Z,2.37
2023-03-12T01:28:13.117Z,2.10
2023-03-12T01:30:42.672Z,2.10
2023-03-12T01:33:10.950Z,2.50
2023-03-12T01:35:39.621Z,2.30
2023-03-12T01:38:08.222Z,2.60
2023-03-12T01:40:38.004Z,2.00
2023-03-12T01:43:24.805Z,3.20
2023-03-12T01:46:14.246Z,2.17
2023-03-12T01:48:45.259Z,3.10
2023-03-12T01:51:15.361Z,2.50
2023-03-12T01:53:45.166Z,2.53
2023-03-12T01:56:14.161Z,2.87
2023-03-12T01:58:44.919Z,2.40
2023-03-12T02:01:13.405Z,2.93
2023-03-12T02:03:42.200Z,2.50
2023-03-12T02:06:13.698Z,1.90
2023-03-12T02:08:43.487Z,1.73
2023-03-12T02:11:11.803Z,3.40
2023-03-12T02:13:40.168Z,2.50
2023-03-12T02:16:08.545Z,2.33
2023-03-12T02:18:37.188Z,2.77
2023-03-12T02:21:10.655Z,2.37
2023-03-12T02:23:44.227Z,2.20
2023-03-12T02:26:13.856Z,2.80
2023-03-12T02:28:44.197Z,2.20
2023-03-12T02:31:14.774Z,2.50
2023-03-12T02:33:43.161Z,2.57
2023-03-12T02:36:11.482Z,2.23
2023-03-12T02:38:44.186Z,1.90
2023-03-12T02:41:16.047Z,2.90
2023-03-12T02:43:46.726Z,2.77
2023-03-12T02:46:15.912Z,3.00
2023-03-12T02:48:44.120Z,3.43
2023-03-12T02:51:12.371Z,2.00
2023-03-12T02:53:40.593Z,2.97
2023-03-12T02:56:09.207Z,2.40
2023-03-12T02:58:38.908Z,2.60
2023-03-12T03:01:07.152Z,2.83
2023-03-12T03:03:35.389Z,2.40
2023-03-12T03:06:03.634Z,3.13
2023-03-12T03:08:31.887Z,2.70
2023-03-12T03:11:02.869Z,2.73
2023-03-12T03:13:31.201Z,2.10
2023-03-12T03:16:01.992Z,2.53
2023-03-12T03:18:30.932Z,2.80
2023-03-12T03:20:59.427Z,4.10
2023-03-12T03:23:27.625Z,2.90
2023-03-12T03:25:56.082Z,3.23
2023-03-12T03:28:24.979Z,3.37
2023-03-12T03:30:54.419Z,3.60
2023-03-12T03:33:23.960Z,2.67
2023-03-12T03:35:52.336Z,5.27
2023-03-12T03:38:20.580Z,3.07
2023-03-12T03:40:48.933Z,3.40
2023-03-12T03:43:17.149Z,3.33
2023-03-12T03:45:45.775Z,3.60
2023-03-12T03:48:14.255Z,3.83
2023-03-12T03:50:44.171Z,4.00
2023-03-12T03:53:12.939Z,3.23
2023-03-12T03:55:41.589Z,3.23
2023-03-12T03:58:09.879Z,6.03
2023-03-12T04:00:38.101Z,3.13
2023-03-12T04:03:06.461Z,3.10
2023-03-12T04:05:34.757Z,3.40
2023-03-12T04:08:04.371Z,3.17
2023-03-12T04:10:32.664Z,3.40
2023-03-12T04:13:00.900Z,3.07
2023-03-12T04:15:29.133Z,3.33
2023-03-12T04:17:57.396Z,3.20
2023-03-12T04:20:25.651Z,3.10
2023-03-12T04:22:53.856Z,3.70
2023-03-12T04:25:23.404Z,3.67
2023-03-12T04:27:51.632Z,3.07
2023-03-12T04:30:19.956Z,2.70
2023-03-12T04:32:48.233Z,4.13
2023-03-12T04:35:16.653Z,3.40
2023-03-12T04:37:45.944Z,2.67
2023-03-12T04:40:15.466Z,3.47
2023-03-12T04:42:45.100Z,4.13
2023-03-12T04:45:13.741Z,2.57
2023-03-12T04:47:41.971Z,2.77
2023-03-12T04:50:10.826Z,3.10
2023-03-12T04:52:39.300Z,3.30
2023-03-12T04:55:08.102Z,3.47
2023-03-12T04:57:36.324Z,4.00
2023-03-12T05:00:10.793Z,3.33
2023-03-12T05:02:39.200Z,2.93
2023-03-12T05:05:07.898Z,3.20
2023-03-12T05:07:36.148Z,3.23
2023-03-12T05:10:04.402Z,3.60
2023-03-12T05:12:32.656Z,2.90
2023-03-12T05:15:00.916Z,4.00
2023-03-12T05:17:30.477Z,3.50
2023-03-12T05:19:58.771Z,3.60
2023-03-12T05:22:27.048Z,4.37
2023-03-12T05:24:55.274Z,3.47
2023-03-12T05:27:25.917Z,4.67
2023-03-12T05:29:54.181Z,3.47
2023-03-12T05:32:22.389Z,4.20
2023-03-12T05:34:52.012Z,4.37
2023-03-12T05:37:21.269Z,4.07
2023-03-12T05:39:49.566Z,5.00
2023-03-12T05:42:18.108Z,3.83
2023-03-12T05:44:46.389Z,4.30
2023-03-12T05:47:14.645Z,3.67
2023-03-12T05:49:44.182Z,4.30
2023-03-12T05:52:13.828Z,4.60
2023-03-12T05:54:42.023Z,3.43
2023-03-12T05:57:10.277Z,4.30
2023-03-12T05:59:38.459Z,4.33
2023-03-12T06:02:06.777Z,4.00
2023-03-12T06:04:35.090Z,4.67
2023-03-12T06:07:03.286Z,4.20
2023-03-12T06:09:32.915Z,4.77
2023-03-12T06:12:01.134Z,4.20
2023-03-12T06:14:29.926Z,4.10
2023-03-12T06:16:58.231Z,4.07
2023-03-12T06:19:26.560Z,4.47
2023-03-12T06:21:54.831Z,4.30
2023-03-12T06:24:23.104Z,4.20
2023-03-12T06:26:52.720Z,4.50
2023-03-12T06:29:20.972Z,3.83
2023-03-12T06:31:52.101Z,4.57
2023-03-12T06:34:20.444Z,4.70
2023-03-12T06:36:48.704Z,4.90
2023-03-12T06:39:16.990Z,4.30
2023-03-12T06:41:45.223Z,4.70
2023-03-12T06:44:14.825Z,5.30
2023-03-12T06:46:44.484Z,5.37
2023-03-12T06:49:12.833Z,4.60
2023-03-12T06:51:41.548Z,4.57
2023-03-12T06:54:09.917Z,4.30
2023-03-12T06:56:38.483Z,5.13
2023-03-12T06:59:07.013Z,5.20
2023-03-12T07:01:36.631Z,6.27
2023-03-12T07:04:04.882Z,4.27
2023-03-12T07:06:33.183Z,4.80
2023-03-12T07:09:01.481Z,5.93
2023-03-12T07:11:29.758Z,5.37
2023-03-12T07:13:58.437Z,5.80
2023-03-12T07:16:26.742Z,6.07
2023-03-12T07:18:56.882Z,5.80
2023-03-12T07:21:25.124Z,7.13
2023-03-12T07:23:53.563Z,6.13
2023-03-12T07:26:22.215Z,5.67
2023-03-12T07:28:50.584Z,5.60
2023-03-12T07:31:18.894Z,6.33
2023-03-12T07:33:47.331Z,5.63
2023-03-12T07:36:17.892Z,6.60
2023-03-12T07:38:46.284Z,5.93
2023-03-12T07:41:14.592Z,6.03
2023-03-12T07:43:43.125Z,6.37
2023-03-12T07:46:11.446Z,5.50
2023-03-12T07:48:41.525Z,6.13
2023-03-12T07:51:11.911Z,5.97
2023-03-12T07:53:41.576Z,5.50
2023-03-12T07:56:10.071Z,5.80
2023-03-12T07:58:39.207Z,5.70
2023-03-12T08:01:07.949Z,5.93
2023-03-12T08:03:36.657Z,4.90
2023-03-12T08:06:05.673Z,5.23
2023-03-12T08:08:34.266Z,6.73
2023-03-12T08:11:05.968Z,5.07
2023-03-12T08:13:34.286Z,6.67
2023-03-12T08:16:03.003Z,4.83
2023-03-12T08:18:31.456Z,5.57
2023-03-12T08:20:59.741Z,6.10
2023-03-12T08:23:28.450Z,5.40
2023-03-12T08:25:56.766Z,5.60
2023-03-12T08:28:26.758Z,4.90
2023-03-12T08:30:56.391Z,5.00
2023-03-12T08:33:24.631Z,4.10
2023-03-12T08:35:53.214Z,3.73
2023-03-12T08:38:21.683Z,4.43
2023-03-12T08:40:56.449Z,4.07
2023-03-12T08:43:27.857Z,3.60
2023-03-12T08:45:57.548Z,3.73
2023-03-12T08:48:25.889Z,3.47
2023-03-12T08:50:56.145Z,3.30
2023-03-12T08:53:24.621Z,4.10
2023-03-12T08:55:54.627Z,4.70
2023-03-12T08:58:23.171Z,3.63
2023-03-12T09:00:53.016Z,4.03
2023-03-12T09:03:22.079Z,3.67
2023-03-12T09:05:50.866Z,4.80
2023-03-12T09:08:19.769Z,5.20
2023-03-12T09:10:51.688Z,6.57
2023-03-12T09:13:20.035Z,4.60
2023-03-12T09:15:48.382Z,5.77
2023-03-12T09:18:20.458Z,4.67
2023-03-12T09:20:48.741Z,6.13
2023-03-12T09:23:17.033Z,4.80
2023-03-12T09:25:47.347Z,5.67
2023-03-12T09:28:16.687Z,5.37
2023-03-12T09:30:45.044Z,7.17
2023-03-12T09:33:18.096Z,5.33
2023-03-12T09:35:47.734Z,5.30
2023-03-12T09:38:16.542Z,8.30
2023-03-12T09:40:48.013Z,7.87
2023-03-12T09:43:20.400Z,8.67
2023-03-12T09:45:49.300Z,9.40
2023-03-12T09:48:18.865Z,9.70
2023-03-12T09:50:49.641Z,10.30
2023-03-12T09:53:20.373Z,9.10
2023-03-12T09:55:50.916Z,8.23
2023-03-12T09:58:22.809Z,8.10
2023-03-12T10:00:51.098Z,8.67
2023-03-12T10:03:32.208Z,9.13
2023-03-12T10:06:10.449Z,8.80
2023-03-12T10:08:44.336Z,11.47
2023-03-12T10:11:19.291Z,10.30
2023-03-12T10:13:55.552Z,12.10
2023-03-12T10:16:31.645Z,9.63
2023-03-12T10:19:08.590Z,10.70
2023-03-12T10:21:44.112Z,12.43
2023-03-12T10:24:25.133Z,12.60
2023-03-12T10:26:56.175Z,11.53
2023-03-12T10:29:26.161Z,12.17
2023-03-12T10:31:56.896Z,15.83
2023-03-12T10:34:30.957Z,15.53
2023-03-12T10:37:02.373Z,12.07
2023-03-12T10:39:30.640Z,14.00
2023-03-12T10:42:02.292Z,11.97
2023-03-12T10:44:30.871Z,12.50
2023-03-12T10:47:09.842Z,14.07
2023-03-12T10:49:39.290Z,14.70
2023-03-12T10:52:16.806Z,14.53
2023-03-12T10:54:45.673Z,15.63
2023-03-12T10:57:15.366Z,16.20
2023-03-12T10:59:44.618Z,13.87
2023-03-12T11:02:37.516Z,17.93
2023-03-12T11:05:21.187Z,14.90
2023-03-12T11:07:51.626Z,20.30
2023-03-12T11:10:21.856Z,8.87
2023-03-12T11:12:54.842Z,15.17
2023-03-12T11:15:24.323Z,16.17
2023-03-12T11:17:52.757Z,12.47
2023-03-12T11:20:27.082Z,15.43
2023-03-12T11:22:56.870Z,17.60
2023-03-12T11:25:26.566Z,15.47
2023-03-12T11:27:55.986Z,15.63
2023-03-12T11:30:25.950Z,16.00
2023-03-12T11:32:55.722Z,15.47
2023-03-12T11:35:29.051Z,17.00
2023-03-12T11:38:02.761Z,17.37
2023-03-12T11:40:39.005Z,12.80
2023-03-12T11:43:29.228Z,18.20
2023-03-12T11:46:10.383Z,17.10
2023-03-12T11:48:43.066Z,21.73
2023-03-12T11:51:17.916Z,15.80
2023-03-12T11:53:54.404Z,16.57
2023-03-12T11:56:26.635Z,18.80
2023-03-12T11:59:03.284Z,16.47
2023-03-12T12:01:39.340Z,14.57
2023-03-12T12:04:34.801Z,15.10
2023-03-12T12:07:08.393Z,14.60
2023-03-12T12:09:41.017Z,14.03
2023-03-12T12:12:23.042Z,17.27
2023-03-12T12:14:56.683Z,18.00
2023-03-12T12:17:28.679Z,15.80
2023-03-12T12:20:09.367Z,14.73
2023-03-12T12:22:45.311Z,18.07
2023-03-12T12:25:20.968Z,14.83
2023-03-12T12:27:52.618Z,16.13
2023-03-12T12:30:22.342Z,10.27
2023-03-12T12:33:05.768Z,13.80
2023-03-12T12:35:36.467Z,14.23
2023-03-12T12:38:06.583Z,13.30
2023-03-12T12:40:38.506Z,14.70
2023-03-12T12:43:12.930Z,8.67
2023-03-12T12:45:42.721Z,13.83
2023-03-12T12:48:15.773Z,14.50
2023-03-12T12:50:44.181Z,13.70
2023-03-12T12:53:17.469Z,13.40
2023-03-12T12:55:51.508Z,14.70
2023-03-12T12:58:23.673Z,15.10
2023-03-12T13:00:53.219Z,13.90
2023-03-12T13:03:23.045Z,13.17
2023-03-12T13:05:58.913Z,19.20
2023-03-12T13:08:34.618Z,15.47
2023-03-12T13:11:18.240Z,18.30
2023-03-12T13:13:50.644Z,16.40
2023-03-12T13:16:21.350Z,13.87
2023-03-12T13:18:57.891Z,16.37
2023-03-12T13:21:28.559Z,14.23
2023-03-12T13:24:00.692Z,15.60
2023-03-12T13:26:33.459Z,14.33
2023-03-12T13:29:14.219Z,14.50
2023-03-12T13:31:44.746Z,11.53
2023-03-12T13:34:45.991Z,10.87
2023-03-12T13:37:22.520Z,13.03
2023-03-12T13:39:50.864Z,12.00
2023-03-12T13:42:37.598Z,9.27
2023-03-12T13:45:25.339Z,11.50
2023-03-12T13:47:55.437Z,11.87
2023-03-12T13:50:24.118Z,11.20
2023-03-12T13:53:04.179Z,9.23
2023-03-12T13:55:33.570Z,10.27
2023-03-12T13:58:07.020Z,10.87
2023-03-12T14:00:39.568Z,10.90
2023-03-12T14:03:13.849Z,8.93
2023-03-12T14:05:46.757Z,7.57
2023-03-12T14:08:32.947Z,8.67
2023-03-12T14:11:20.121Z,7.70
2023-03-12T14:13:57.480Z,8.37
2023-03-12T14:16:30.590Z,9.03
2023-03-12T14:18:59.548Z,9.30
2023-03-12T14:21:32.385Z,9.17
2023-03-12T14:24:01.812Z,8.83
2023-03-12T14:26:32.043Z,8.87
2023-03-12T14:29:03.152Z,7.70
2023-03-12T14:31:31.952Z,7.23
2023-03-12T14:34:01.111Z,6.90
2023-03-12T14:36:31.088Z,7.57
2023-03-12T14:39:02.661Z,7.40
2023-03-12T14:41:31.876Z,8.60
2023-03-12T14:44:07.482Z,8.50
2023-03-12T14:46:35.783Z,7.63
2023-03-12T14:49:04.127Z,8.67
2023-03-12T14:51:37.292Z,4.77
2023-03-12T14:54:06.143Z,6.00
2023-03-12T14:56:35.998Z,9.80
2023-03-12T14:59:22.030Z,6.67
2023-03-12T15:01:50.420Z,5.57
2023-03-12T15:04:20.250Z,7.80
2023-03-12T15:06:50.078Z,5.87
2023-03-12T15:09:19.716Z,6.30
2023-03-12T15:11:52.790Z,7.13
2023-03-12T15:14:23.140Z,7.73
2023-03-12T15:16:51.909Z,5.30
2023-03-12T15:19:22.000Z,7.30
2023-03-12T15:21:50.468Z,6.93
2023-03-12T15:24:19.577Z,5.53
2023-03-12T15:26:47.873Z,6.03
2023-03-12T15:29:26.871Z,5.67
2023-03-12T15:31:56.541Z,5.30
2023-03-12T15:34:33.124Z,5.77
2023-03-12T15:37:02.159Z,4.53
2023-03-12T15:39:32.260Z,5.23
2023-03-12T15:42:02.827Z,4.00
2023-03-12T15:44:37.259Z,5.23
2023-03-12T15:47:08.051Z,4.43
2023-03-12T15:49:37.455Z,5.73
2023-03-12T15:52:07.857Z,6.63
2023-03-12T15:54:40.485Z,5.93
2023-03-12T15:57:22.917Z,4.20
2023-03-12T16:00:12.014Z,4.90
2023-03-12T16:02:42.457Z,3.93
2023-03-12T16:05:10.733Z,4.60
2023-03-12T16:07:39.129Z,4.87
2023-03-12T16:10:08.925Z,5.73
2023-03-12T16:12:38.118Z,7.67
2023-03-12T16:15:06.945Z,4.87
2023-03-12T16:17:35.529Z,4.13
2023-03-12T16:20:06.080Z,5.77
2023-03-12T16:22:34.405Z,4.43
2023-03-12T16:25:02.717Z,5.00
2023-03-12T16:27:32.795Z,4.13
2023-03-12T16:30:01.434Z,6.40
2023-03-12T16:32:29.711Z,4.13
2023-03-12T16:34:58.107Z,4.73
2023-03-12T16:37:27.833Z,5.10
2023-03-12T16:39:56.110Z,4.87
2023-03-12T16:42:24.354Z,5.00
2023-03-12T16:44:52.626Z,4.63
2023-03-12T16:47:24.950Z,4.70
2023-03-12T16:49:53.164Z,5.83
2023-03-12T16:52:22.694Z,5.73
2023-03-12T16:54:53.258Z,5.57
2023-03-12T16:57:24.207Z,4.27
2023-03-12T16:59:53.445Z,4.93
2023-03-12T17:02:22.199Z,4.00
2023-03-12T17:04:51.094Z,7.00
2023-03-12T17:07:21.666Z,6.90
2023-03-12T17:09:50.131Z,5.73
2023-03-12T17:12:23.362Z,5.10
2023-03-12T17:14:51.754Z,5.50
2023-03-12T17:17:23.101Z,6.97
2023-03-12T17:19:51.976Z,9.00
2023-03-12T17:22:20.332Z,14.17
2023-03-12T17:24:48.665Z,7.33
2023-03-12T17:27:16.880Z,6.30
2023-03-12T17:29:46.594Z,7.63
2023-03-12T17:32:14.805Z,5.43
2023-03-12T17:34:43.033Z,5.60
2023-03-12T17:37:14.234Z,6.27
2023-03-12T17:39:42.455Z,5.13
2023-03-12T17:42:10.709Z,5.50
2023-03-12T17:44:39.017Z,5.00
2023-03-12T17:47:08.705Z,6.40
2023-03-12T17:49:37.015Z,4.13
2023-03-12T17:52:05.529Z,5.87
2023-03-12T17:54:33.793Z,6.27
2023-03-12T17:57:13.172Z,5.53
2023-03-12T17:59:41.461Z,5.70
2023-03-12T18:02:12.937Z,6.40
2023-03-12T18:04:41.391Z,5.90
2023-03-12T18:07:09.687Z,7.80
2023-03-12T18:09:37.994Z,7.10
2023-03-12T18:12:06.772Z,9.33
2023-03-12T18:14:35.165Z,10.00
2023-03-12T18:17:04.403Z,8.47
2023-03-12T18:19:35.365Z,8.03
2023-03-12T18:22:03.999Z,9.17
2023-03-12T18:24:32.331Z,5.70
2023-03-12T18:27:00.937Z,5.90
2023-03-12T18:29:29.236Z,6.30
2023-03-12T18:31:57.448Z,5.70
2023-03-12T18:34:25.683Z,5.03
2023-03-12T18:36:55.352Z,5.90
2023-03-12T18:39:23.994Z,6.03
2023-03-12T18:41:52.444Z,5.43
2023-03-12T18:44:20.770Z,5.20
2023-03-12T18:46:50.894Z,4.93
2023-03-12T18:49:19.568Z,5.53
2023-03-12T18:51:48.133Z,4.40
2023-03-12T18:54:18.011Z,6.70
2023-03-12T18:56:46.770Z,7.37
2023-03-12T18:59:15.131Z,5.47
2023-03-12T19:01:43.719Z,5.37
2023-03-12T19:04:12.660Z,6.53
2023-03-12T19:06:50.250Z,5.20
2023-03-12T19:09:21.112Z,5.80
2023-03-12T19:11:49.812Z,5.80
2023-03-12T19:14:18.159Z,5.47
2023-03-12T19:16:46.435Z,5.83
2023-03-12T19:19:14.656Z,6.77
2023-03-12T19:21:44.027Z,6.70
2023-03-12T19:24:12.241Z,6.77
2023-03-12T19:26:41.936Z,7.63
2023-03-12T19:29:10.496Z,5.50
2023-03-12T19:31:38.911Z,5.33
2023-03-12T19:34:08.181Z,5.43
2023-03-12T19:36:36.486Z,4.70
2023-03-12T19:39:11.994Z,6.27
2023-03-12T19:41:48.445Z,5.57
2023-03-12T19:44:16.690Z,6.53
2023-03-12T19:46:44.930Z,7.13
2023-03-12T19:49:13.116Z,5.20
2023-03-12T19:51:41.440Z,4.70
2023-03-12T19:54:09.752Z,5.37
2023-03-12T19:56:38.159Z,6.03
2023-03-12T19:59:07.752Z,5.90
2023-03-12T20:01:35.992Z,6.83
2023-03-12T20:04:07.844Z,5.27
2023-03-12T20:06:36.169Z,6.10
2023-03-12T20:09:05.328Z,4.47
2023-03-12T20:11:33.583Z,5.87
2023-03-12T20:14:01.905Z,6.53
2023-03-12T20:16:31.539Z,7.27
2023-03-12T20:18:59.843Z,5.20
2023-03-12T20:21:29.544Z,5.53
2023-03-12T20:23:58.761Z,5.80
2023-03-12T20:26:27.070Z,6.40
2023-03-12T20:28:55.380Z,6.10
2023-03-12T20:31:23.644Z,6.83
2023-03-12T20:33:53.240Z,4.70
2023-03-12T20:36:21.535Z,4.70
2023-03-12T20:38:49.964Z,5.23
2023-03-12T20:41:19.066Z,5.50
2023-03-12T20:43:47.479Z,5.30
2023-03-12T20:46:15.854Z,5.57
2023-03-12T20:48:44.228Z,6.20
2023-03-12T20:51:13.816Z,4.80
2023-03-12T20:53:42.154Z,4.63
2023-03-12T20:56:10.655Z,5.53
2023-03-12T20:58:38.931Z,4.30
2023-03-12T21:01:07.547Z,6.50
2023-03-12T21:03:36.024Z,4.90
2023-03-12T21:06:04.990Z,4.63
2023-03-12T21:08:35.168Z,5.47
2023-03-12T21:11:07.232Z,7.20
2023-03-12T21:13:35.690Z,4.60
2023-03-12T21:16:06.378Z,4.80
2023-03-12T21:18:34.615Z,3.73
2023-03-12T21:21:03.650Z,4.10
2023-03-12T21:23:40.615Z,5.07
2023-03-12T21:26:09.943Z,4.00
2023-03-12T21:28:38.192Z,4.80
2023-03-12T21:31:07.393Z,5.47
2023-03-12T21:33:41.741Z,5.60
2023-03-12T21:36:11.624Z,4.20
2023-03-12T21:38:42.695Z,5.00
2023-03-12T21:41:11.688Z,5.63
2023-03-12T21:43:54.327Z,4.60
2023-03-12T21:46:24.897Z,5.60
2023-03-12T21:48:53.399Z,4.30
2023-03-12T21:51:22.620Z,5.40
2023-03-12T21:53:55.574Z,3.70
2023-03-12T21:56:26.477Z,4.30
2023-03-12T21:58:54.834Z,4.00
2023-03-12T22:01:23.316Z,4.10
2023-03-12T22:03:51.979Z,4.60
2023-03-12T22:06:20.621Z,4.73
2023-03-12T22:08:49.380Z,4.70
2023-03-12T22:11:18.902Z,5.43
2023-03-12T22:13:47.104Z,4.53
2023-03-12T22:16:15.992Z,4.67
2023-03-12T22:18:44.967Z,4.57
2023-03-12T22:21:15.509Z,4.97
2023-03-12T22:23:43.762Z,5.63
2023-03-12T22:26:12.118Z,4.40
2023-03-12T22:28:44.598Z,5.10
2023-03-12T22:31:12.834Z,4.33
2023-03-12T22:33:41.070Z,4.80
2023-03-12T22:36:10.337Z,3.87
2023-03-12T22:38:38.742Z,3.90
2023-03-12T22:41:14.179Z,4.10
2023-03-12T22:43:42.357Z,4.80
2023-03-12T22:46:11.964Z,4.93
2023-03-12T22:48:40.189Z,4.70
2023-03-12T22:51:08.807Z,4.87
2023-03-12T22:53:37.055Z,5.07
2023-03-12T22:56:06.557Z,5.27
2023-03-12T22:58:35.558Z,5.63
2023-03-12T23:01:04.649Z,4.70
2023-03-12T23:03:35.019Z,4.27
2023-03-12T23:06:04.012Z,4.27
2023-03-12T23:08:32.505Z,3.77
2023-03-12T23:11:02.819Z,3.87
2023-03-12T23:13:31.822Z,3.80
2023-03-12T23:16:02.889Z,4.47
2023-03-12T23:18:31.147Z,5.30
2023-03-12T23:21:01.379Z,5.23
2023-03-12T23:23:29.953Z,5.00
2023-03-12T23:25:58.771Z,4.73
2023-03-12T23:28:27.592Z,4.33
2023-03-12T23:30:56.880Z,5.30
2023-03-12T23:33:25.263Z,4.30
2023-03-12T23:35:56.842Z,5.47
2023-03-12T23:38:27.057Z,4.07
2023-03-12T23:40:55.271Z,5.20
2023-03-12T23:43:23.524Z,3.90
2023-03-12T23:45:58.224Z,6.10
2023-03-12T23:48:26.561Z,5.60
2023-03-12T23:50:54.806Z,4.70
2023-03-12T23:53:23.244Z,4.93
2023-03-12T23:55:59.359Z,4.70
2023-03-12T23:58:27.893Z,5.17
